Time;durP1;ratioP1;P1;durP2;ratioP2;P2;SDS_P1;SDS_P2;PMS_P1;PMS_P2;Temp;Humidity;BMP_temperature;BMP_pressure;BME280_temperature;BME280_humidity;BME280_pressure;Samples;Min_cycle;Max_cycle;Signal;HPM_P1;HPM_P2
2023/06/11 00:02:11;;;;;;;5.90;5.40;;;;;;;;;;4941522;28;20466;-79
2023/06/11 00:04:38;;;;;;;6.47;5.43;;;;;;;;;;4973336;28;20138;-79
2023/06/11 00:07:05;;;;;;;7.63;6.15;;;;;;;;;;4973542;28;20061;-78
2023/06/11 00:09:32;;;;;;;7.03;5.80;;;;;;;;;;4977775;28;20121;-79
2023/06/11 00:11:59;;;;;;;6.13;5.63;;;;;;;;;;4951310;28;20058;-78
2023/06/11 00:14:26;;;;;;;5.65;5.13;;;;;;;;;;4992535;28;20557;-79
2023/06/11 00:16:53;;;;;;;6.85;6.15;;;;;;;;;;4992487;28;20065;-79
2023/06/11 00:19:20;;;;;;;7.00;6.30;;;;;;;;;;4992669;28;20074;-78
2023/06/11 00:21:48;;;;;;;6.15;5.65;;;;;;;;;;4956996;28;20492;-78
2023/06/11 00:24:16;;;;;;;6.40;5.80;;;;;;;;;;4973107;28;20055;-79
2023/06/11 00:26:43;;;;;;;6.15;5.65;;;;;;;;;;4957029;28;20427;-78
2023/06/11 00:29:10;;;;;;;6.22;5.57;;;;;;;;;;4974043;28;20101;-79
2023/06/11 00:31:37;;;;;;;5.85;5.35;;;;;;;;;;4970856;28;20076;-79
2023/06/11 00:34:04;;;;;;;6.70;5.80;;;;;;;;;;4993621;28;20116;-79
2023/06/11 00:36:33;;;;;;;5.82;5.32;;;;;;;;;;4976105;28;20404;-79
2023/06/11 00:39:00;;;;;;;7.32;5.72;;;;;;;;;;4960473;28;20128;-79
2023/06/11 00:41:29;;;;;;;7.45;5.72;;;;;;;;;;4975734;28;20097;-79
2023/06/11 00:43:57;;;;;;;6.13;5.47;;;;;;;;;;4992212;28;20055;-79
2023/06/11 00:46:24;;;;;;;6.38;5.78;;;;;;;;;;4991999;28;20144;-78
2023/06/11 00:48:51;;;;;;;7.20;5.72;;;;;;;;;;4975569;28;20046;-78
2023/06/11 00:51:18;;;;;;;7.30;6.55;;;;;;;;;;4976026;28;20050;-80
2023/06/11 00:53:45;;;;;;;6.40;5.70;;;;;;;;;;4976683;28;20431;-79
2023/06/11 00:56:17;;;;;;;7.30;6.53;;;;;;;;;;4976276;28;20073;-79
2023/06/11 00:58:45;;;;;;;6.80;6.20;;;;;;;;;;4992066;28;20074;-79
2023/06/11 01:01:17;;;;;;;7.38;6.72;;;;;;;;;;4940971;28;20380;-78
2023/06/11 01:03:43;;;;;;;7.10;6.40;;;;;;;;;;4942410;28;20563;-78
2023/06/11 01:06:13;;;;;;;6.78;6.18;;;;;;;;;;4956631;28;20054;-79
2023/06/11 01:08:40;;;;;;;7.00;6.40;;;;;;;;;;4957247;28;20051;-79
2023/06/11 01:11:22;;;;;;;7.43;6.75;;;;;;;;;;4940372;28;20055;-78
2023/06/11 01:13:51;;;;;;;8.00;7.20;;;;;;;;;;4957889;28;20058;-79
2023/06/11 01:16:34;;;;;;;7.00;6.40;;;;;;;;;;4972324;28;20055;-79
2023/06/11 01:19:17;;;;;;;6.43;5.82;;;;;;;;;;4971882;28;20057;-78
2023/06/11 01:21:46;;;;;;;6.82;6.22;;;;;;;;;;4977534;28;20055;-79
2023/06/11 01:24:21;;;;;;;7.00;6.40;;;;;;;;;;4940546;28;20129;-79
2023/06/11 01:27:10;;;;;;;6.80;6.20;;;;;;;;;;4972346;28;20050;-78
2023/06/11 01:29:45;;;;;;;7.10;6.40;;;;;;;;;;4965531;28;20054;-78
2023/06/11 01:32:12;;;;;;;6.55;5.95;;;;;;;;;;4977377;28;20050;-81
2023/06/11 01:34:41;;;;;;;7.13;6.15;;;;;;;;;;4957563;28;20050;-80
2023/06/11 01:37:12;;;;;;;8.90;6.80;;;;;;;;;;4942038;28;20050;-80
2023/06/11 01:39:38;;;;;;;8.13;5.82;;;;;;;;;;4949120;28;20097;-79
2023/06/11 01:42:06;;;;;;;6.47;5.88;;;;;;;;;;4975102;28;20054;-80
2023/06/11 01:44:33;;;;;;;6.97;6.28;;;;;;;;;;4975142;28;20054;-79
2023/06/11 01:47:01;;;;;;;8.40;7.07;;;;;;;;;;4990487;28;20575;-79
2023/06/11 01:49:35;;;;;;;7.32;6.63;;;;;;;;;;4975551;28;20050;-79
2023/06/11 01:52:02;;;;;;;7.00;6.40;;;;;;;;;;4990732;28;20065;-79
2023/06/11 01:54:29;;;;;;;7.15;6.45;;;;;;;;;;4958648;28;20062;-79
2023/06/11 01:56:56;;;;;;;7.35;6.65;;;;;;;;;;4990205;28;20057;-80
2023/06/11 01:59:23;;;;;;;8.20;6.90;;;;;;;;;;4979486;28;20451;-79
2023/06/11 02:01:52;;;;;;;7.43;6.72;;;;;;;;;;4954815;28;20057;-80
2023/06/11 02:04:20;;;;;;;7.43;6.72;;;;;;;;;;4956096;28;20061;-79
2023/06/11 02:06:48;;;;;;;7.20;6.55;;;;;;;;;;4955285;28;20051;-79
2023/06/11 02:09:15;;;;;;;7.95;6.70;;;;;;;;;;4970851;28;20062;-79
2023/06/11 02:11:46;;;;;;;7.75;6.93;;;;;;;;;;4971370;28;20054;-79
2023/06/11 02:14:13;;;;;;;7.55;6.82;;;;;;;;;;4972811;28;20055;-79
2023/06/11 02:16:40;;;;;;;7.47;6.78;;;;;;;;;;4955971;28;20050;-79
2023/06/11 02:19:07;;;;;;;9.57;6.50;;;;;;;;;;4971321;28;20130;-79
2023/06/11 02:21:34;;;;;;;7.88;7.18;;;;;;;;;;4955173;28;20508;-80
2023/06/11 02:24:01;;;;;;;8.35;6.88;;;;;;;;;;4955957;28;20062;-80
2023/06/11 02:26:28;;;;;;;7.88;7.18;;;;;;;;;;4974028;28;20058;-80
2023/06/11 02:28:55;;;;;;;7.60;6.93;;;;;;;;;;4964902;28;20047;-80
2023/06/11 02:31:22;;;;;;;7.35;6.65;;;;;;;;;;4972589;28;20070;-82
2023/06/11 02:33:48;;;;;;;8.23;7.43;;;;;;;;;;4973684;28;20059;-80
2023/06/11 02:36:15;;;;;;;7.47;6.78;;;;;;;;;;4990335;28;20065;-80
2023/06/11 02:38:42;;;;;;;7.55;6.85;;;;;;;;;;5018043;28;20050;-80
2023/06/11 02:41:09;;;;;;;7.45;6.75;;;;;;;;;;4991723;28;20065;-82
2023/06/11 02:43:36;;;;;;;11.13;7.07;;;;;;;;;;4960511;28;20112;-79
2023/06/11 02:46:03;;;;;;;7.75;7.03;;;;;;;;;;4976052;28;20061;-79
2023/06/11 02:48:30;;;;;;;7.72;6.93;;;;;;;;;;4991922;28;20491;-80
2023/06/11 02:50:57;;;;;;;7.88;7.18;;;;;;;;;;4974742;28;20093;-79
2023/06/11 02:53:24;;;;;;;9.93;7.55;;;;;;;;;;4990682;28;20062;-79
2023/06/11 02:55:51;;;;;;;8.05;7.22;;;;;;;;;;4991278;28;20422;-80
2023/06/11 02:58:18;;;;;;;7.55;6.82;;;;;;;;;;4993813;28;20047;-80
2023/06/11 03:00:44;;;;;;;8.27;7.45;;;;;;;;;;4985960;28;20518;-79
2023/06/11 03:03:12;;;;;;;8.40;7.60;;;;;;;;;;5008804;28;20089;-80
2023/06/11 03:05:40;;;;;;;7.75;6.97;;;;;;;;;;4990085;28;20498;-80
2023/06/11 03:08:07;;;;;;;7.53;6.75;;;;;;;;;;4957120;28;20061;-80
2023/06/11 03:10:34;;;;;;;7.75;6.95;;;;;;;;;;4974587;28;20054;-80
2023/06/11 03:13:01;;;;;;;7.45;6.50;;;;;;;;;;4961064;28;20062;-80
2023/06/11 03:15:27;;;;;;;8.88;7.45;;;;;;;;;;4979285;28;20054;-80
2023/06/11 03:17:54;;;;;;;7.43;6.80;;;;;;;;;;4977365;28;20050;-80
2023/06/11 03:20:21;;;;;;;7.75;6.95;;;;;;;;;;4977571;28;20097;-81
2023/06/11 03:22:48;;;;;;;7.20;6.50;;;;;;;;;;4961678;28;20109;-80
2023/06/11 03:25:15;;;;;;;8.20;7.40;;;;;;;;;;4960806;28;20061;-80
2023/06/11 03:27:42;;;;;;;7.80;6.70;;;;;;;;;;4978163;28;20051;-80
2023/06/11 03:30:10;;;;;;;7.43;6.45;;;;;;;;;;4961187;28;20055;-80
2023/06/11 03:32:38;;;;;;;7.88;7.07;;;;;;;;;;4945254;28;20055;-79
2023/06/11 03:35:05;;;;;;;8.13;7.35;;;;;;;;;;4960180;28;20057;-79
2023/06/11 03:37:32;;;;;;;8.13;7.32;;;;;;;;;;4993996;28;20057;-79
2023/06/11 03:39:59;;;;;;;8.60;7.80;;;;;;;;;;4996110;28;20062;-80
2023/06/11 03:42:28;;;;;;;8.02;7.25;;;;;;;;;;4996260;28;20065;-79
2023/06/11 03:44:55;;;;;;;7.28;6.57;;;;;;;;;;5000154;28;20050;-80
2023/06/11 03:47:22;;;;;;;7.63;6.93;;;;;;;;;;4958442;28;20054;-79
2023/06/11 03:49:50;;;;;;;7.35;6.70;;;;;;;;;;4976081;28;20085;-80
2023/06/11 03:52:17;;;;;;;7.13;6.43;;;;;;;;;;4959417;28;20062;-81
2023/06/11 03:54:44;;;;;;;6.70;6.10;;;;;;;;;;4959225;28;20055;-79
2023/06/11 03:57:12;;;;;;;7.78;6.97;;;;;;;;;;4958544;28;20055;-80
2023/06/11 03:59:39;;;;;;;6.97;6.38;;;;;;;;;;4942846;28;20072;-79
2023/06/11 04:02:06;;;;;;;7.95;6.95;;;;;;;;;;4957980;28;20085;-79
2023/06/11 04:04:33;;;;;;;7.28;6.57;;;;;;;;;;4959792;28;20074;-80
2023/06/11 04:07:00;;;;;;;7.20;6.50;;;;;;;;;;4989067;28;20498;-80
2023/06/11 04:09:27;;;;;;;7.18;6.22;;;;;;;;;;4965627;28;20465;-79
2023/06/11 04:11:53;;;;;;;6.70;6.10;;;;;;;;;;4978101;28;20422;-80
2023/06/11 04:14:20;;;;;;;7.25;6.55;;;;;;;;;;4993594;28;20054;-78
2023/06/11 04:16:47;;;;;;;8.60;6.63;;;;;;;;;;4981862;28;20113;-78
2023/06/11 04:19:15;;;;;;;6.70;6.10;;;;;;;;;;4959849;28;20059;-79
2023/06/11 04:21:41;;;;;;;7.60;6.88;;;;;;;;;;4974000;28;20502;-79
2023/06/11 04:24:08;;;;;;;6.93;6.32;;;;;;;;;;4974271;28;20423;-79
2023/06/11 04:26:36;;;;;;;8.98;6.40;;;;;;;;;;4982511;28;20054;-79
2023/06/11 04:29:03;;;;;;;7.13;6.43;;;;;;;;;;4979381;28;20388;-79
2023/06/11 04:31:32;;;;;;;8.05;5.88;;;;;;;;;;4992151;28;20051;-79
2023/06/11 04:34:02;;;;;;;7.20;6.50;;;;;;;;;;4978910;28;20057;-80
2023/06/11 04:36:29;;;;;;;6.70;6.10;;;;;;;;;;4987906;28;20063;-80
2023/06/11 04:39:02;;;;;;;6.53;5.93;;;;;;;;;;4977135;28;20086;-80
2023/06/11 04:41:29;;;;;;;7.27;6.10;;;;;;;;;;4971599;28;20054;-80
2023/06/11 04:43:56;;;;;;;6.95;6.35;;;;;;;;;;4980419;28;20065;-80
2023/06/11 04:46:23;;;;;;;7.05;5.78;;;;;;;;;;4996595;28;20054;-80
2023/06/11 04:48:50;;;;;;;6.75;6.15;;;;;;;;;;4980476;28;20046;-80
2023/06/11 04:51:17;;;;;;;7.03;6.15;;;;;;;;;;5001525;28;20050;-79
2023/06/11 04:53:45;;;;;;;6.93;5.65;;;;;;;;;;4968414;28;20061;-80
2023/06/11 04:56:12;;;;;;;6.60;6.00;;;;;;;;;;4979175;28;20050;-80
2023/06/11 04:58:39;;;;;;;7.03;6.32;;;;;;;;;;4980531;28;20062;-80
2023/06/11 05:01:07;;;;;;;7.22;6.07;;;;;;;;;;4962795;28;20089;-80
2023/06/11 05:03:37;;;;;;;7.72;6.70;;;;;;;;;;4974156;28;20065;-80
2023/06/11 05:06:04;;;;;;;6.70;6.10;;;;;;;;;;4980704;28;20128;-79
2023/06/11 05:08:32;;;;;;;6.00;5.40;;;;;;;;;;4994934;28;20058;-80
2023/06/11 05:10:59;;;;;;;6.00;5.40;;;;;;;;;;4975262;28;20058;-79
2023/06/11 05:13:26;;;;;;;6.07;5.47;;;;;;;;;;4959662;28;20055;-80
2023/06/11 05:15:57;;;;;;;5.55;5.05;;;;;;;;;;4975962;28;20423;-79
2023/06/11 05:18:25;;;;;;;5.72;5.22;;;;;;;;;;4950090;28;20050;-80
2023/06/11 05:20:52;;;;;;;6.72;5.32;;;;;;;;;;4947481;28;20086;-79
2023/06/11 05:23:28;;;;;;;6.45;5.40;;;;;;;;;;4976190;28;20059;-79
2023/06/11 05:26:01;;;;;;;6.25;5.60;;;;;;;;;;4947984;28;20058;-79
2023/06/11 05:28:28;;;;;;;;;;;;;;;;;;4979604;28;20058;-79
2023/06/11 05:30:54;;;;;;;7.25;5.10;;;;;;;;;;4993831;28;19925;-80
2023/06/11 05:33:22;;;;;;;5.35;4.85;;;;;;;;;;4979375;28;20058;-79
2023/06/11 05:35:51;;;;;;;5.60;5.10;;;;;;;;;;4993529;28;20058;-79
2023/06/11 05:38:19;;;;;;;6.78;5.60;;;;;;;;;;4960517;28;20069;-79
2023/06/11 05:40:45;;;;;;;5.63;5.13;;;;;;;;;;4959618;28;20051;-79
2023/06/11 05:43:12;;;;;;;5.95;5.18;;;;;;;;;;4957721;28;20054;-79
2023/06/11 05:45:47;;;;;;;6.28;4.82;;;;;;;;;;4956600;28;20109;-79
2023/06/11 05:48:15;;;;;;;5.90;5.40;;;;;;;;;;4975654;28;20117;-79
2023/06/11 05:50:42;;;;;;;7.68;5.85;;;;;;;;;;4959068;28;20172;-79
2023/06/11 05:53:09;;;;;;;6.28;5.68;;;;;;;;;;4978232;28;20057;-80
2023/06/11 05:55:37;;;;;;;5.90;5.30;;;;;;;;;;4970849;28;20075;-79
2023/06/11 05:58:05;;;;;;;5.55;5.05;;;;;;;;;;4978155;28;20058;-80
2023/06/11 06:00:32;;;;;;;5.75;4.82;;;;;;;;;;4962291;28;20061;-80
2023/06/11 06:03:01;;;;;;;5.20;4.68;;;;;;;;;;4962417;28;20054;-80
2023/06/11 06:05:28;;;;;;;7.22;4.90;;;;;;;;;;4978168;28;20109;-80
2023/06/11 06:07:55;;;;;;;5.43;4.80;;;;;;;;;;4976150;28;20050;-79
2023/06/11 06:10:22;;;;;;;4.85;4.40;;;;;;;;;;4955973;28;20555;-79
2023/06/11 06:12:49;;;;;;;5.07;4.68;;;;;;;;;;4971646;28;20065;-81
2023/06/11 06:15:16;;;;;;;5.82;4.85;;;;;;;;;;4955594;28;20050;-77
2023/06/11 06:17:43;;;;;;;5.05;4.63;;;;;;;;;;4971142;28;20050;-77
2023/06/11 06:20:11;;;;;;;5.15;4.65;;;;;;;;;;4974626;28;20553;-74
2023/06/11 06:22:38;;;;;;;7.60;6.18;;;;;;;;;;4975958;28;20182;-78
2023/06/11 06:25:06;;;;;;;5.07;4.68;;;;;;;;;;4962439;28;20058;-80
2023/06/11 06:27:33;;;;;;;5.03;4.53;;;;;;;;;;4978380;28;20467;-81
2023/06/11 06:29:59;;;;;;;6.72;4.60;;;;;;;;;;4963171;28;20196;-75
2023/06/11 06:32:28;;;;;;;6.05;5.20;;;;;;;;;;4990613;28;20050;-75
2023/06/11 06:34:55;;;;;;;5.90;4.90;;;;;;;;;;4990988;28;20058;-75
2023/06/11 06:37:24;;;;;;;6.80;4.78;;;;;;;;;;4974579;28;20106;-74
2023/06/11 06:39:50;;;;;;;5.18;4.68;;;;;;;;;;4959107;28;20050;-75
2023/06/11 06:42:17;;;;;;;5.88;4.45;;;;;;;;;;4990382;28;20046;-75
2023/06/11 06:44:44;;;;;;;4.55;4.18;;;;;;;;;;4990378;28;20104;-75
2023/06/11 06:47:12;;;;;;;5.30;4.80;;;;;;;;;;4975855;28;20061;-75
2023/06/11 06:49:39;;;;;;;6.57;4.57;;;;;;;;;;4995989;28;20055;-75
2023/06/11 06:52:09;;;;;;;5.18;4.38;;;;;;;;;;4994450;28;20054;-75
2023/06/11 06:54:36;;;;;;;5.68;4.97;;;;;;;;;;4962621;28;20058;-75
2023/06/11 06:57:03;;;;;;;5.15;4.65;;;;;;;;;;4993072;28;20050;-75
2023/06/11 06:59:30;;;;;;;4.85;4.45;;;;;;;;;;4976109;28;20051;-75
2023/06/11 07:01:57;;;;;;;4.90;4.50;;;;;;;;;;4962396;28;20491;-75
2023/06/11 07:04:24;;;;;;;5.25;4.75;;;;;;;;;;4995623;28;20054;-75
2023/06/11 07:06:51;;;;;;;5.65;4.10;;;;;;;;;;4990780;28;20104;-75
2023/06/11 07:09:18;;;;;;;4.35;3.95;;;;;;;;;;4995488;28;20054;-75
2023/06/11 07:11:46;;;;;;;6.70;4.22;;;;;;;;;;4993645;28;20058;-76
2023/06/11 07:14:13;;;;;;;5.10;4.55;;;;;;;;;;4978040;28;20565;-75
2023/06/11 07:16:40;;;;;;;5.18;4.35;;;;;;;;;;4993633;28;20054;-75
2023/06/11 07:19:07;;;;;;;4.80;4.40;;;;;;;;;;4982128;28;20058;-75
2023/06/11 07:21:35;;;;;;;5.00;4.10;;;;;;;;;;4974464;28;20069;-75
2023/06/11 07:24:07;;;;;;;4.80;4.40;;;;;;;;;;4987603;28;20043;-75
2023/06/11 07:26:34;;;;;;;5.18;4.68;;;;;;;;;;4975448;28;20057;-75
2023/06/11 07:29:01;;;;;;;4.60;4.20;;;;;;;;;;4961744;28;20046;-75
2023/06/11 07:31:27;;;;;;;5.38;4.60;;;;;;;;;;4977603;28;20050;-75
2023/06/11 07:33:54;;;;;;;6.90;4.20;;;;;;;;;;4971780;28;20054;-75
2023/06/11 07:36:21;;;;;;;6.10;4.43;;;;;;;;;;4972948;28;20051;-75
2023/06/11 07:38:48;;;;;;;4.43;4.00;;;;;;;;;;4958352;28;20058;-75
2023/06/11 07:41:15;;;;;;;4.43;4.13;;;;;;;;;;4974023;28;20658;-75
2023/06/11 07:43:42;;;;;;;4.75;4.35;;;;;;;;;;4960191;28;20055;-80
2023/06/11 07:46:09;;;;;;;4.50;4.05;;;;;;;;;;4981465;28;20466;-76
2023/06/11 07:48:41;;;;;;;4.43;4.00;;;;;;;;;;4981621;28;20050;-76
2023/06/11 07:51:07;;;;;;;5.07;4.57;;;;;;;;;;5005847;28;20035;-76
2023/06/11 07:53:37;;;;;;;4.45;3.70;;;;;;;;;;4988751;28;20026;-76
2023/06/11 07:56:03;;;;;;;4.53;4.13;;;;;;;;;;5029761;28;20190;-74
2023/06/11 07:58:30;;;;;;;4.70;4.30;;;;;;;;;;4996250;28;20051;-75
2023/06/11 08:00:57;;;;;;;4.30;3.90;;;;;;;;;;4994671;28;20408;-75
2023/06/11 08:03:24;;;;;;;6.22;4.25;;;;;;;;;;4965057;28;20059;-75
2023/06/11 08:05:51;;;;;;;5.32;4.68;;;;;;;;;;4977552;28;20055;-75
2023/06/11 08:08:18;;;;;;;5.20;4.30;;;;;;;;;;4983896;28;20137;-75
2023/06/11 08:10:50;;;;;;;4.47;4.07;;;;;;;;;;4969686;28;20051;-74
2023/06/11 08:13:18;;;;;;;6.05;4.13;;;;;;;;;;4957866;28;20097;-74
2023/06/11 08:15:45;;;;;;;4.88;4.10;;;;;;;;;;4977118;28;20046;-75
2023/06/11 08:18:12;;;;;;;4.80;3.97;;;;;;;;;;4991731;28;20061;-75
2023/06/11 08:20:40;;;;;;;4.78;3.55;;;;;;;;;;4988250;28;20113;-75
2023/06/11 08:23:07;;;;;;;4.68;3.80;;;;;;;;;;4973366;28;20046;-75
2023/06/11 08:25:36;;;;;;;7.72;4.88;;;;;;;;;;4978768;28;20050;-75
2023/06/11 08:28:03;;;;;;;5.03;4.63;;;;;;;;;;4964953;28;20480;-75
2023/06/11 08:30:30;;;;;;;4.65;3.65;;;;;;;;;;4990004;28;20073;-75
2023/06/11 08:32:59;;;;;;;4.00;3.60;;;;;;;;;;4963047;28;20054;-75
2023/06/11 08:35:27;;;;;;;3.67;3.33;;;;;;;;;;4961160;28;20066;-75
2023/06/11 08:37:56;;;;;;;3.97;3.67;;;;;;;;;;4960727;28;20048;-75
2023/06/11 08:40:27;;;;;;;3.63;3.33;;;;;;;;;;4962665;28;20053;-75
2023/06/11 08:42:54;;;;;;;3.83;3.47;;;;;;;;;;4963178;28;20047;-75
2023/06/11 08:45:20;;;;;;;3.70;3.40;;;;;;;;;;4984385;28;20125;-75
2023/06/11 08:47:50;;;;;;;3.97;3.45;;;;;;;;;;4982871;28;20069;-75
2023/06/11 08:50:21;;;;;;;4.70;3.40;;;;;;;;;;4963174;28;20049;-75
2023/06/11 08:52:53;;;;;;;4.72;3.00;;;;;;;;;;4957199;28;20082;-74
2023/06/11 08:55:20;;;;;;;7.07;3.60;;;;;;;;;;4957169;28;20089;-75
2023/06/11 08:57:50;;;;;;;5.05;3.10;;;;;;;;;;4956613;28;20062;-75
2023/06/11 09:00:17;;;;;;;3.67;3.38;;;;;;;;;;4941706;28;20046;-75
2023/06/11 09:02:44;;;;;;;4.53;3.30;;;;;;;;;;4972310;28;20125;-75
2023/06/11 09:05:11;;;;;;;5.65;3.88;;;;;;;;;;4963329;28;20055;-74
2023/06/11 09:07:50;;;;;;;4.95;3.60;;;;;;;;;;4984891;28;20140;-75
2023/06/11 09:10:17;;;;;;;4.47;3.63;;;;;;;;;;4949098;28;20499;-76
2023/06/11 09:12:45;;;;;;;5.15;3.35;;;;;;;;;;4972937;28;20430;-75
2023/06/11 09:15:12;;;;;;;3.78;3.40;;;;;;;;;;4971951;28;20116;-75
2023/06/11 09:17:40;;;;;;;5.32;3.75;;;;;;;;;;4984687;28;20062;-75
2023/06/11 09:20:09;;;;;;;3.70;3.40;;;;;;;;;;4970021;28;20054;-75
2023/06/11 09:22:37;;;;;;;3.92;3.45;;;;;;;;;;4975380;28;20128;-74
2023/06/11 09:25:06;;;;;;;5.20;3.22;;;;;;;;;;4977665;28;20061;-74
2023/06/11 09:27:34;;;;;;;5.85;3.42;;;;;;;;;;4961620;28;20054;-74
2023/06/11 09:30:08;;;;;;;3.70;3.22;;;;;;;;;;4974687;28;20043;-74
2023/06/11 09:32:41;;;;;;;3.63;3.10;;;;;;;;;;4982174;28;20061;-75
2023/06/11 09:35:09;;;;;;;3.97;3.33;;;;;;;;;;4950874;28;20055;-74
2023/06/11 09:37:47;;;;;;;7.00;3.47;;;;;;;;;;4971995;28;20050;-75
2023/06/11 09:40:18;;;;;;;3.50;3.20;;;;;;;;;;4968019;28;20051;-75
2023/06/11 09:42:47;;;;;;;3.40;3.10;;;;;;;;;;4972930;28;20054;-75
2023/06/11 09:45:17;;;;;;;5.60;3.60;;;;;;;;;;4970491;28;20086;-75
2023/06/11 09:47:45;;;;;;;4.20;3.25;;;;;;;;;;4978325;28;20507;-75
2023/06/11 09:50:14;;;;;;;4.88;4.15;;;;;;;;;;4963214;28;20051;-75
2023/06/11 09:52:42;;;;;;;4.00;3.60;;;;;;;;;;4949252;28;20518;-74
2023/06/11 09:55:09;;;;;;;8.27;3.38;;;;;;;;;;4971191;28;20446;-76
2023/06/11 09:57:38;;;;;;;4.07;3.67;;;;;;;;;;4970327;28;20070;-78
2023/06/11 10:00:09;;;;;;;4.07;3.70;;;;;;;;;;4980679;28;20089;-76
2023/06/11 10:02:41;;;;;;;4.35;3.53;;;;;;;;;;4967946;28;20096;-76
2023/06/11 10:05:09;;;;;;;3.40;3.10;;;;;;;;;;4945046;28;20576;-75
2023/06/11 10:07:41;;;;;;;4.53;3.60;;;;;;;;;;4970400;28;20105;-74
2023/06/11 10:10:09;;;;;;;3.40;3.10;;;;;;;;;;4978103;28;20499;-75
2023/06/11 10:12:37;;;;;;;3.45;3.13;;;;;;;;;;4964043;28;20133;-74
2023/06/11 10:15:05;;;;;;;4.07;3.45;;;;;;;;;;4962710;28;20142;-76
2023/06/11 10:17:32;;;;;;;4.78;3.63;;;;;;;;;;4960529;28;20054;-76
2023/06/11 10:19:59;;;;;;;4.30;3.22;;;;;;;;;;4980191;28;20046;-76
2023/06/11 10:22:34;;;;;;;4.68;3.20;;;;;;;;;;4976348;28;20070;-76
2023/06/11 10:25:02;;;;;;;5.28;3.72;;;;;;;;;;4965593;28;20418;-79
2023/06/11 10:27:38;;;;;;;4.60;3.10;;;;;;;;;;4971986;28;20069;-77
2023/06/11 10:30:06;;;;;;;4.70;3.35;;;;;;;;;;4979619;28;20419;-78
2023/06/11 10:32:33;;;;;;;4.82;3.58;;;;;;;;;;4982298;28;20526;-78
2023/06/11 10:35:03;;;;;;;4.25;3.35;;;;;;;;;;4977964;28;20058;-78
2023/06/11 10:37:36;;;;;;;4.47;3.45;;;;;;;;;;4963371;28;20050;-78
2023/06/11 10:40:08;;;;;;;3.72;3.33;;;;;;;;;;4969617;28;20130;-78
2023/06/11 10:42:37;;;;;;;3.95;3.55;;;;;;;;;;4966613;28;20054;-78
2023/06/11 10:45:08;;;;;;;3.28;2.95;;;;;;;;;;4964854;28;20187;-78
2023/06/11 10:47:43;;;;;;;3.87;3.57;;;;;;;;;;4977893;28;20051;-78
2023/06/11 10:50:12;;;;;;;7.35;3.78;;;;;;;;;;4979696;28;20129;-78
2023/06/11 10:52:55;;;;;;;5.43;3.55;;;;;;;;;;4967902;28;20114;-78
2023/06/11 10:55:23;;;;;;;;;;;;;;;;;;4970221;28;20055;-78
2023/06/11 10:57:53;;;;;;;3.58;3.28;;;;;;;;;;4983498;28;19926;-79
2023/06/11 11:00:21;;;;;;;6.18;3.95;;;;;;;;;;4983362;28;20073;-79
2023/06/11 11:02:49;;;;;;;4.18;3.35;;;;;;;;;;4974175;28;20050;-79
2023/06/11 11:05:16;;;;;;;4.18;3.78;;;;;;;;;;4984572;28;20051;-79
2023/06/11 11:07:47;;;;;;;4.85;3.28;;;;;;;;;;4976553;28;20050;-78
2023/06/11 11:10:19;;;;;;;4.00;3.55;;;;;;;;;;4968665;28;20069;-78
2023/06/11 11:12:47;;;;;;;6.30;3.83;;;;;;;;;;4962432;28;20082;-84
2023/06/11 11:15:15;;;;;;;4.05;3.65;;;;;;;;;;4985436;28;20093;-79
2023/06/11 11:17:46;;;;;;;4.40;3.33;;;;;;;;;;4983973;28;20086;-80
2023/06/11 11:20:15;;;;;;;4.00;3.70;;;;;;;;;;4987663;28;20522;-80
2023/06/11 11:22:42;;;;;;;3.83;3.42;;;;;;;;;;4980542;28;20047;-80
2023/06/11 11:25:17;;;;;;;3.83;3.40;;;;;;;;;;4984568;28;20533;-80
2023/06/11 11:27:44;;;;;;;3.70;3.40;;;;;;;;;;4997720;28;20058;-80
2023/06/11 11:30:19;;;;;;;3.40;3.17;;;;;;;;;;5006002;28;20050;-80
2023/06/11 11:32:46;;;;;;;4.55;3.50;;;;;;;;;;4985843;28;20087;-80
2023/06/11 11:35:14;;;;;;;4.20;3.80;;;;;;;;;;5005710;28;20084;-80
2023/06/11 11:37:44;;;;;;;3.78;3.47;;;;;;;;;;4989237;28;20055;-80
2023/06/11 11:40:12;;;;;;;5.55;3.72;;;;;;;;;;4976594;28;20062;-80
2023/06/11 11:42:47;;;;;;;5.85;4.00;;;;;;;;;;4984137;28;20078;-80
2023/06/11 11:45:14;;;;;;;6.82;3.80;;;;;;;;;;4998200;28;20093;-80
2023/06/11 11:47:52;;;;;;;4.63;3.60;;;;;;;;;;4960121;28;20089;-80
2023/06/11 11:50:30;;;;;;;4.80;3.47;;;;;;;;;;4966640;28;20142;-76
2023/06/11 11:53:05;;;;;;;4.32;3.42;;;;;;;;;;4969752;28;20556;-76
2023/06/11 11:55:46;;;;;;;3.50;3.20;;;;;;;;;;4989902;28;20520;-75
2023/06/11 11:58:41;;;;;;;6.15;3.72;;;;;;;;;;4984003;28;20503;-76
2023/06/11 12:01:21;;;;;;;3.88;3.45;;;;;;;;;;4958079;28;20054;-76
2023/06/11 12:03:58;;;;;;;3.20;2.88;;;;;;;;;;4970279;28;20073;-76
2023/06/11 12:06:30;;;;;;;3.58;3.25;;;;;;;;;;4988646;28;20050;-77
2023/06/11 12:09:15;;;;;;;3.50;3.20;;;;;;;;;;4975664;28;20046;-77
2023/06/11 12:11:43;;;;;;;3.88;3.50;;;;;;;;;;4983086;28;20054;-82
2023/06/11 12:14:29;;;;;;;4.38;3.47;;;;;;;;;;4996097;28;20058;-78
2023/06/11 12:16:56;;;;;;;3.63;3.33;;;;;;;;;;5008849;28;20462;-77
2023/06/11 12:19:24;;;;;;;3.53;3.22;;;;;;;;;;4973511;28;20502;-77
2023/06/11 12:21:52;;;;;;;5.25;3.80;;;;;;;;;;4972586;28;20101;-77
2023/06/11 12:24:22;;;;;;;3.50;3.22;;;;;;;;;;4957239;28;20054;-77
2023/06/11 12:26:51;;;;;;;3.77;3.27;;;;;;;;;;4958201;28;20125;-77
2023/06/11 12:29:19;;;;;;;4.43;3.67;;;;;;;;;;4976826;28;20053;-77
2023/06/11 12:31:46;;;;;;;3.88;3.50;;;;;;;;;;4957491;28;20050;-77
2023/06/11 12:34:17;;;;;;;4.20;3.70;;;;;;;;;;4973152;28;20082;-77
2023/06/11 12:36:45;;;;;;;6.03;3.83;;;;;;;;;;4957366;28;20113;-77
2023/06/11 12:39:13;;;;;;;4.28;3.88;;;;;;;;;;4957593;28;20519;-77
2023/06/11 12:41:40;;;;;;;3.90;3.55;;;;;;;;;;4962547;28;20088;-77
2023/06/11 12:44:07;;;;;;;5.20;3.15;;;;;;;;;;4956514;28;20073;-79
2023/06/11 12:46:36;;;;;;;3.50;3.20;;;;;;;;;;4993363;28;20058;-79
2023/06/11 12:49:03;;;;;;;4.30;3.42;;;;;;;;;;4970519;28;20046;-79
2023/06/11 12:51:30;;;;;;;4.82;3.72;;;;;;;;;;4992859;28;20106;-79
2023/06/11 12:53:56;;;;;;;4.43;3.75;;;;;;;;;;5009471;28;20046;-78
2023/06/11 12:56:23;;;;;;;3.95;3.55;;;;;;;;;;5013178;28;20049;-79
2023/06/11 12:58:50;;;;;;;4.93;3.25;;;;;;;;;;4996247;28;20054;-79
2023/06/11 13:01:17;;;;;;;3.85;3.45;;;;;;;;;;5012966;28;20061;-79
2023/06/11 13:03:44;;;;;;;4.72;3.65;;;;;;;;;;4996189;28;20054;-79
2023/06/11 13:06:11;;;;;;;9.18;3.70;;;;;;;;;;4996677;28;20085;-79
2023/06/11 13:08:38;;;;;;;3.55;3.25;;;;;;;;;;5012486;28;20050;-79
2023/06/11 13:11:05;;;;;;;3.17;2.88;;;;;;;;;;5011160;28;20062;-79
2023/06/11 13:13:32;;;;;;;2.90;2.60;;;;;;;;;;4979462;28;20065;-77
2023/06/11 13:15:59;;;;;;;6.60;3.85;;;;;;;;;;4993279;28;20054;-77
2023/06/11 13:18:26;;;;;;;3.65;3.20;;;;;;;;;;4977842;28;20054;-77
2023/06/11 13:20:53;;;;;;;3.28;2.97;;;;;;;;;;4975497;28;20046;-77
2023/06/11 13:23:26;;;;;;;3.40;3.10;;;;;;;;;;4988796;28;20052;-77
2023/06/11 13:25:53;;;;;;;4.93;3.40;;;;;;;;;;4991783;28;20145;-77
2023/06/11 13:28:20;;;;;;;4.32;3.38;;;;;;;;;;4985386;28;20112;-77
2023/06/11 13:30:48;;;;;;;3.45;3.15;;;;;;;;;;4979696;28;20053;-77
2023/06/11 13:33:16;;;;;;;3.92;2.88;;;;;;;;;;4987315;28;20065;-77
2023/06/11 13:35:44;;;;;;;4.38;3.17;;;;;;;;;;4956221;28;20051;-77
2023/06/11 13:38:11;;;;;;;3.25;2.95;;;;;;;;;;4955967;28;20054;-77
2023/06/11 13:40:38;;;;;;;4.13;3.28;;;;;;;;;;4972725;28;20050;-77
2023/06/11 13:43:05;;;;;;;4.20;3.30;;;;;;;;;;4981784;28;20054;-77
2023/06/11 13:45:32;;;;;;;4.97;3.03;;;;;;;;;;4967054;28;20055;-77
2023/06/11 13:48:10;;;;;;;3.97;3.58;;;;;;;;;;5002908;28;20050;-78
2023/06/11 13:50:38;;;;;;;3.60;2.92;;;;;;;;;;4985409;28;20485;-77
2023/06/11 13:53:06;;;;;;;4.88;2.90;;;;;;;;;;4952298;28;20077;-77
2023/06/11 13:55:33;;;;;;;4.30;3.50;;;;;;;;;;4958734;28;20109;-76
2023/06/11 13:58:01;;;;;;;3.42;3.10;;;;;;;;;;4979001;28;20062;-76
2023/06/11 14:00:28;;;;;;;3.83;3.13;;;;;;;;;;4969469;28;20534;-76
2023/06/11 14:02:55;;;;;;;3.53;3.10;;;;;;;;;;4979656;28;20061;-76
2023/06/11 14:05:26;;;;;;;3.60;3.30;;;;;;;;;;4972762;28;20048;-76
2023/06/11 14:07:53;;;;;;;3.13;2.83;;;;;;;;;;4992027;28;20054;-76
2023/06/11 14:10:20;;;;;;;3.30;3.00;;;;;;;;;;4974698;28;20532;-76
2023/06/11 14:12:47;;;;;;;4.68;3.08;;;;;;;;;;4970981;28;20058;-76
2023/06/11 14:15:17;;;;;;;3.28;2.95;;;;;;;;;;4965504;28;20054;-76
2023/06/11 14:17:45;;;;;;;3.53;2.80;;;;;;;;;;4976608;28;20051;-76
2023/06/11 14:20:14;;;;;;;4.22;3.45;;;;;;;;;;4987567;28;20105;-76
2023/06/11 14:22:43;;;;;;;;;;;;;;;;;;4981109;28;20051;-76
2023/06/11 14:25:10;;;;;;;3.45;2.95;;;;;;;;;;4980004;28;19925;-76
2023/06/11 14:27:38;;;;;;;6.85;3.63;;;;;;;;;;4949460;28;20546;-76
2023/06/11 14:30:05;;;;;;;3.88;2.58;;;;;;;;;;4980815;28;20125;-76
2023/06/11 14:32:32;;;;;;;4.95;2.67;;;;;;;;;;4978639;28;20080;-76
2023/06/11 14:35:00;;;;;;;4.68;3.15;;;;;;;;;;4979342;28;20050;-76
2023/06/11 14:37:28;;;;;;;3.88;3.03;;;;;;;;;;4979021;28;20537;-76
2023/06/11 14:39:55;;;;;;;3.03;2.83;;;;;;;;;;4994772;28;20068;-76
2023/06/11 14:42:22;;;;;;;2.95;2.70;;;;;;;;;;4987419;28;20047;-76
2023/06/11 14:44:49;;;;;;;4.10;3.47;;;;;;;;;;4977574;28;20808;-76
2023/06/11 14:47:16;;;;;;;2.83;2.63;;;;;;;;;;4960071;28;20050;-76
2023/06/11 14:49:43;;;;;;;2.80;2.60;;;;;;;;;;4978319;28;20050;-76
2023/06/11 14:52:10;;;;;;;3.15;2.95;;;;;;;;;;4978526;28;20503;-76